Time;durP1;ratioP1;P1;durP2;ratioP2;P2;SDS_P1;SDS_P2;PMS_P1;PMS_P2;Temp;Humidity;BMP_temperature;BMP_pressure;BME280_temperature;BME280_humidity;BME280_pressure;Samples;Min_cycle;Max_cycle;Signal;HPM_P1;HPM_P2
2022/08/11 00:02:13;;;;;;;3.85;2.45;;;;;;;;;;5047852;28;20549;-65
2022/08/11 00:04:38;;;;;;;3.03;2.47;;;;;;;;;;5047288;28;20201;-65
2022/08/11 00:07:05;;;;;;;5.93;2.75;;;;;;;;;;5049026;28;20713;-66
2022/08/11 00:09:34;;;;;;;3.35;2.60;;;;;;;;;;5072514;28;20231;-66
2022/08/11 00:12:01;;;;;;;6.32;2.72;;;;;;;;;;5063195;28;20641;-66
2022/08/11 00:14:28;;;;;;;6.47;2.85;;;;;;;;;;5056574;28;20218;-66
2022/08/11 00:16:57;;;;;;;4.88;3.35;;;;;;;;;;5053629;28;20181;-66
2022/08/11 00:19:36;;;;;;;4.78;2.92;;;;;;;;;;5067496;28;20245;-66
2022/08/11 00:22:04;;;;;;;5.07;2.50;;;;;;;;;;5053306;28;20747;-66
2022/08/11 00:24:36;;;;;;;4.90;3.00;;;;;;;;;;5048921;28;20224;-66
2022/08/11 00:27:03;;;;;;;6.82;3.00;;;;;;;;;;5022820;28;1148498;-66
2022/08/11 00:29:29;;;;;;;5.93;2.97;;;;;;;;;;5061482;28;20277;-66
2022/08/11 00:31:57;;;;;;;3.25;2.95;;;;;;;;;;5050538;28;20336;-65
2022/08/11 00:34:32;;;;;;;7.93;3.05;;;;;;;;;;5060150;28;20233;-66
2022/08/11 00:37:02;;;;;;;4.85;3.05;;;;;;;;;;5061091;28;20271;-66
2022/08/11 00:39:30;;;;;;;4.38;2.80;;;;;;;;;;5053787;28;20181;-66
2022/08/11 00:42:02;;;;;;;6.65;2.90;;;;;;;;;;5048733;28;20225;-66
2022/08/11 00:44:53;;;;;;;3.58;2.92;;;;;;;;;;5047018;28;20217;-66
2022/08/11 00:47:31;;;;;;;5.30;3.00;;;;;;;;;;5052576;28;20441;-65
2022/08/11 00:50:02;;;;;;;4.38;3.50;;;;;;;;;;5055556;28;20208;-65
2022/08/11 00:52:49;;;;;;;6.03;3.30;;;;;;;;;;5048016;28;20183;-65
2022/08/11 00:55:42;;;;;;;3.15;2.85;;;;;;;;;;5052213;28;20239;-65
2022/08/11 00:58:26;;;;;;;4.82;3.65;;;;;;;;;;5057064;28;20177;-65
2022/08/11 01:01:16;;;;;;;4.35;2.97;;;;;;;;;;5064681;28;20189;-65
2022/08/11 01:03:47;;;;;;;6.20;3.17;;;;;;;;;;5047662;28;20181;-65
2022/08/11 01:06:40;;;;;;;4.25;3.25;;;;;;;;;;5055276;28;20476;-65
2022/08/11 01:09:43;;;;;;;6.32;3.33;;;;;;;;;;5066986;28;20260;-65
2022/08/11 01:12:20;;;;;;;4.93;3.47;;;;;;;;;;5067265;28;20181;-65
2022/08/11 01:15:03;;;;;;;3.35;3.05;;;;;;;;;;5054055;28;20173;-65
2022/08/11 01:17:49;;;;;;;4.82;3.17;;;;;;;;;;5048227;28;20562;-65
2022/08/11 01:20:33;;;;;;;4.85;2.75;;;;;;;;;;5047427;28;20605;-65
2022/08/11 01:23:06;;;;;;;4.53;3.15;;;;;;;;;;5053138;28;20644;-65
2022/08/11 01:26:09;;;;;;;4.00;3.30;;;;;;;;;;5058455;28;20672;-65
2022/08/11 01:28:56;;;;;;;4.15;3.10;;;;;;;;;;5057394;28;20528;-65
2022/08/11 01:31:48;;;;;;;3.90;2.95;;;;;;;;;;5064084;28;20713;-65
2022/08/11 01:34:50;;;;;;;4.85;3.75;;;;;;;;;;5060590;28;20268;-65
2022/08/11 01:37:42;;;;;;;3.53;3.00;;;;;;;;;;5054685;28;20184;-65
2022/08/11 01:40:20;;;;;;;3.83;3.20;;;;;;;;;;5064169;28;20216;-65
2022/08/11 01:46:04;;;;;;;7.68;3.80;;;;;;;;;;5054093;28;20211;-66
2022/08/11 01:48:41;;;;;;;4.13;3.67;;;;;;;;;;5061564;28;20185;-66
2022/08/11 01:51:37;;;;;;;6.18;3.70;;;;;;;;;;5056633;28;20636;-66
2022/08/11 01:54:21;;;;;;;4.00;3.05;;;;;;;;;;5060562;28;20243;-65
2022/08/11 01:57:19;;;;;;;3.92;3.50;;;;;;;;;;5050916;28;20216;-65
2022/08/11 01:59:48;;;;;;;7.53;3.70;;;;;;;;;;5060317;28;20177;-65
2022/08/11 02:02:44;;;;;;;4.35;3.55;;;;;;;;;;5069862;28;20238;-65
2022/08/11 02:05:16;;;;;;;5.80;3.95;;;;;;;;;;5070285;28;20189;-65
2022/08/11 02:08:19;;;;;;;7.03;4.07;;;;;;;;;;5073379;28;20180;-66
2022/08/11 02:11:30;;;;;;;5.18;3.85;;;;;;;;;;5068757;28;20437;-66
2022/08/11 02:14:02;;;;;;;7.75;4.15;;;;;;;;;;5050406;28;20173;-66
2022/08/11 02:16:45;;;;;;;5.82;4.30;;;;;;;;;;5051354;28;20181;-66
2022/08/11 02:25:40;;;;;;;7.43;3.95;;;;;;;;;;5059417;28;20256;-66
2022/08/11 02:28:28;;;;;;;6.32;4.30;;;;;;;;;;5055775;28;20656;-66
2022/08/11 02:34:24;;;;;;;6.07;3.90;;;;;;;;;;5064824;28;20191;-66
2022/08/11 02:37:14;;;;;;;6.72;4.22;;;;;;;;;;5048448;28;20645;-66
2022/08/11 02:39:52;;;;;;;5.88;3.88;;;;;;;;;;5055067;28;20209;-66
2022/08/11 02:42:45;;;;;;;5.00;4.50;;;;;;;;;;5069987;28;20295;-66
2022/08/11 02:45:10;;;;;;;5.60;4.68;;;;;;;;;;5063627;28;20683;-66
2022/08/11 02:51:19;;;;;;;5.90;4.70;;;;;;;;;;5050733;28;20208;-66
2022/08/11 02:53:52;;;;;;;6.68;4.88;;;;;;;;;;5065627;28;20538;-66
2022/08/11 02:56:43;;;;;;;7.47;4.72;;;;;;;;;;5069617;28;20183;-66
2022/08/11 02:59:50;;;;;;;6.90;4.88;;;;;;;;;;5050171;28;20186;-66
2022/08/11 03:02:30;;;;;;;6.90;5.07;;;;;;;;;;5054680;28;20189;-66
2022/08/11 03:05:10;;;;;;;7.72;5.03;;;;;;;;;;5070072;28;20687;-66
2022/08/11 03:07:39;;;;;;;7.97;5.63;;;;;;;;;;5068946;28;20185;-66
2022/08/11 03:10:08;;;;;;;6.45;5.70;;;;;;;;;;5050897;28;20196;-66
2022/08/11 03:18:41;;;;;;;7.70;5.65;;;;;;;;;;5051679;28;20184;-66
2022/08/11 03:21:21;;;;;;;7.50;6.50;;;;;;;;;;5049039;28;20227;-66
2022/08/11 03:24:15;;;;;;;7.50;6.35;;;;;;;;;;5054095;28;20542;-66
2022/08/11 03:27:10;;;;;;;8.70;7.03;;;;;;;;;;5048547;28;20591;-66
2022/08/11 03:29:47;;;;;;;10.05;6.78;;;;;;;;;;5047932;28;20180;-66
2022/08/11 03:32:31;;;;;;;7.47;6.03;;;;;;;;;;5048421;28;20711;-66
2022/08/11 03:35:00;;;;;;;8.50;6.70;;;;;;;;;;5048740;28;20196;-66
2022/08/11 03:37:49;;;;;;;8.10;6.38;;;;;;;;;;5055578;28;20197;-66
2022/08/11 03:43:51;;;;;;;10.73;7.90;;;;;;;;;;5048447;28;20204;-66
2022/08/11 03:46:44;;;;;;;10.18;7.65;;;;;;;;;;5048831;28;20204;-66
2022/08/11 03:49:43;;;;;;;9.20;7.63;;;;;;;;;;5049632;28;20173;-66
2022/08/11 03:52:46;;;;;;;10.60;7.65;;;;;;;;;;5051409;28;20272;-66
2022/08/11 03:55:49;;;;;;;10.70;8.73;;;;;;;;;;5058067;28;20173;-66
2022/08/11 03:58:53;;;;;;;11.95;8.02;;;;;;;;;;5047598;28;20224;-66
2022/08/11 04:01:36;;;;;;;11.60;8.13;;;;;;;;;;5060067;28;20664;-66
2022/08/11 04:04:31;;;;;;;11.30;8.52;;;;;;;;;;5068127;28;20225;-66
2022/08/11 04:07:34;;;;;;;10.50;7.68;;;;;;;;;;5054814;28;20190;-66
2022/08/11 04:10:08;;;;;;;9.15;7.75;;;;;;;;;;5062730;28;20184;-66
2022/08/11 04:12:37;;;;;;;14.02;8.10;;;;;;;;;;5049049;28;20596;-66
2022/08/11 04:15:59;;;;;;;11.23;7.90;;;;;;;;;;5050485;28;20173;-66
2022/08/11 04:18:42;;;;;;;9.02;7.68;;;;;;;;;;5067477;28;20223;-66
2022/08/11 04:21:55;;;;;;;10.82;7.57;;;;;;;;;;5019222;28;20192;-66
2022/08/11 04:24:38;;;;;;;10.18;7.32;;;;;;;;;;5045712;28;20288;-66
2022/08/11 04:27:52;;;;;;;10.23;7.93;;;;;;;;;;5048124;28;20224;-66
2022/08/11 04:30:52;;;;;;;7.78;6.97;;;;;;;;;;5055524;28;20169;-66
2022/08/11 04:33:33;;;;;;;10.15;7.53;;;;;;;;;;5055553;28;20183;-66
2022/08/11 04:40:06;;;;;;;11.75;7.85;;;;;;;;;;5030233;28;20203;-66
2022/08/11 04:46:11;;;;;;;10.95;8.18;;;;;;;;;;5047831;28;20216;-66
2022/08/11 05:05:29;;;;;;;9.35;7.25;;;;;;;;;;5065627;28;20197;-66
2022/08/11 05:07:15;;;;;;;8.98;6.70;;;;;;;;;;5050542;28;20189;-66
2022/08/11 05:09:59;;;;;;;7.70;6.40;;;;;;;;;;5064625;28;20564;-66
2022/08/11 05:12:33;;;;;;;8.88;6.70;;;;;;;;;;5051723;28;20239;-66
2022/08/11 05:27:09;;;;;;;9.55;7.10;;;;;;;;;;5071780;28;20199;-66
2022/08/11 05:35:45;;;;;;;8.80;6.95;;;;;;;;;;5051788;28;20208;-67
2022/08/11 05:57:56;;;;;;;9.43;6.30;;;;;;;;;;5061847;28;20195;-67
2022/08/11 06:00:23;;;;;;;9.95;6.40;;;;;;;;;;5065978;28;20188;-67
2022/08/11 06:02:54;;;;;;;10.85;5.40;;;;;;;;;;5055285;28;20211;-66
2022/08/11 06:05:20;;;;;;;8.18;6.35;;;;;;;;;;5053431;28;20511;-67
2022/08/11 06:07:47;;;;;;;7.72;5.93;;;;;;;;;;5064352;28;20242;-67
2022/08/11 06:10:14;;;;;;;7.15;5.80;;;;;;;;;;5051373;28;20529;-67
2022/08/11 06:12:41;;;;;;;8.85;6.30;;;;;;;;;;5061466;28;20415;-67
2022/08/11 06:15:10;;;;;;;8.35;7.07;;;;;;;;;;5070430;28;20211;-67
2022/08/11 06:17:45;;;;;;;6.88;5.68;;;;;;;;;;5059629;28;20205;-67
2022/08/11 06:20:11;;;;;;;7.88;6.07;;;;;;;;;;5067293;28;20603;-66
2022/08/11 06:22:38;;;;;;;8.00;5.72;;;;;;;;;;5060595;28;20188;-66
2022/08/11 06:25:05;;;;;;;8.73;6.32;;;;;;;;;;5061783;28;20440;-66
2022/08/11 06:27:33;;;;;;;9.45;5.60;;;;;;;;;;5070459;28;20250;-67
2022/08/11 06:30:00;;;;;;;8.32;5.50;;;;;;;;;;5070067;28;20169;-67
2022/08/11 06:32:30;;;;;;;9.60;5.57;;;;;;;;;;5068111;28;20257;-67
2022/08/11 06:35:33;;;;;;;6.43;4.85;;;;;;;;;;5068776;28;20758;-67
2022/08/11 06:38:20;;;;;;;8.18;4.40;;;;;;;;;;5057044;28;20242;-67
2022/08/11 06:43:51;;;;;;;9.93;5.35;;;;;;;;;;5065230;28;20205;-67
2022/08/11 06:46:35;;;;;;;8.15;5.45;;;;;;;;;;5063619;28;20195;-67
2022/08/11 06:49:02;;;;;;;6.97;4.63;;;;;;;;;;5049342;28;20618;-67
2022/08/11 06:51:28;;;;;;;7.75;4.60;;;;;;;;;;5063976;28;20185;-66
2022/08/11 06:53:59;;;;;;;6.70;4.80;;;;;;;;;;5049429;28;20177;-66
2022/08/11 07:02:19;;;;;;;7.93;4.05;;;;;;;;;;5069140;28;20254;-67
2022/08/11 07:05:07;;;;;;;5.10;4.28;;;;;;;;;;5060214;28;20292;-66
2022/08/11 07:16:44;;;;;;;4.88;3.88;;;;;;;;;;5055547;28;20564;-66
2022/08/11 07:30:25;;;;;;;5.78;3.38;;;;;;;;;;5049170;28;20187;-66
2022/08/11 07:32:54;;;;;;;5.13;3.25;;;;;;;;;;5058279;28;20254;-67
2022/08/11 07:35:33;;;;;;;5.22;3.08;;;;;;;;;;5066202;28;20172;-67
2022/08/11 07:38:10;;;;;;;6.97;2.88;;;;;;;;;;5055778;28;20180;-67
2022/08/11 07:40:36;;;;;;;8.57;2.63;;;;;;;;;;5069024;28;20181;-68
2022/08/11 07:43:03;;;;;;;7.65;2.90;;;;;;;;;;5068312;28;20169;-69
2022/08/11 07:53:45;;;;;;;6.55;2.58;;;;;;;;;;5064088;28;20226;-66
2022/08/11 07:56:15;;;;;;;7.60;2.40;;;;;;;;;;5066907;28;20689;-67
2022/08/11 08:18:01;;;;;;;3.80;2.05;;;;;;;;;;5061834;28;20203;-67
2022/08/11 08:20:34;;;;;;;4.65;1.88;;;;;;;;;;5053936;28;20176;-67
2022/08/11 08:23:01;;;;;;;2.53;1.80;;;;;;;;;;5059382;28;20190;-67
2022/08/11 08:25:34;;;;;;;5.93;1.67;;;;;;;;;;5048385;28;20579;-67
2022/08/11 08:28:02;;;;;;;5.10;2.03;;;;;;;;;;5048039;28;20675;-67
2022/08/11 08:30:47;;;;;;;2.50;2.03;;;;;;;;;;5048465;28;20723;-68
2022/08/11 08:33:23;;;;;;;4.90;1.63;;;;;;;;;;5051749;28;20188;-67
2022/08/11 08:36:09;;;;;;;5.05;1.80;;;;;;;;;;5061131;28;20184;-67
2022/08/11 08:38:42;;;;;;;2.20;1.60;;;;;;;;;;5063639;28;20196;-67
2022/08/11 08:41:08;;;;;;;5.05;2.13;;;;;;;;;;5065807;28;20180;-66
2022/08/11 08:43:35;;;;;;;2.88;1.90;;;;;;;;;;5057550;28;20184;-65
2022/08/11 08:46:04;;;;;;;3.10;1.83;;;;;;;;;;5072562;28;20648;-66
2022/08/11 08:48:31;;;;;;;8.48;2.15;;;;;;;;;;5064554;28;20176;-66
2022/08/11 08:53:50;;;;;;;4.50;2.10;;;;;;;;;;5060872;28;20227;-67
2022/08/11 08:56:16;;;;;;;4.50;2.03;;;;;;;;;;5059810;28;20181;-66
2022/08/11 08:58:46;;;;;;;5.03;1.92;;;;;;;;;;5051921;28;20178;-66
2022/08/11 09:01:13;;;;;;;2.75;1.83;;;;;;;;;;5062064;28;20234;-67
2022/08/11 09:03:39;;;;;;;7.85;2.30;;;;;;;;;;5071531;28;20185;-67
2022/08/11 09:06:05;;;;;;;3.88;2.05;;;;;;;;;;5067057;28;20338;-67
2022/08/11 09:08:32;;;;;;;5.05;2.10;;;;;;;;;;5065200;28;20199;-66
2022/08/11 09:13:45;;;;;;;6.68;2.60;;;;;;;;;;5053696;28;20188;-66
2022/08/11 09:16:11;;;;;;;3.63;1.92;;;;;;;;;;5067438;28;20188;-66
2022/08/11 09:18:38;;;;;;;7.50;2.22;;;;;;;;;;5066885;28;20268;-67
2022/08/11 09:21:05;;;;;;;6.28;2.30;;;;;;;;;;5053679;28;20197;-67
2022/08/11 09:29:00;;;;;;;4.88;2.00;;;;;;;;;;5063877;28;20210;-65
2022/08/11 09:31:30;;;;;;;3.75;2.10;;;;;;;;;;5067130;28;20198;-65
2022/08/11 09:33:55;;;;;;;5.60;2.30;;;;;;;;;;5051214;28;20185;-65
2022/08/11 09:41:50;;;;;;;6.72;2.70;;;;;;;;;;5065316;28;20576;-68
2022/08/11 09:47:02;;;;;;;3.78;1.60;;;;;;;;;;5071075;28;20254;-68
2022/08/11 09:49:28;;;;;;;3.63;1.77;;;;;;;;;;5057272;28;20601;-69
2022/08/11 09:51:55;;;;;;;3.63;1.75;;;;;;;;;;5055122;28;20207;-67
2022/08/11 09:54:23;;;;;;;7.97;2.30;;;;;;;;;;5050768;28;20659;-66
2022/08/11 09:59:35;;;;;;;3.00;1.60;;;;;;;;;;5071410;28;20549;-68
2022/08/11 10:02:02;;;;;;;2.85;2.03;;;;;;;;;;5068656;28;20177;-67
2022/08/11 10:04:44;;;;;;;2.63;1.70;;;;;;;;;;5061107;28;20711;-68
2022/08/11 10:07:14;;;;;;;2.35;1.60;;;;;;;;;;5050968;28;20284;-68
2022/08/11 10:09:48;;;;;;;4.32;1.70;;;;;;;;;;5051479;28;20617;-65
2022/08/11 10:12:24;;;;;;;3.08;1.73;;;;;;;;;;5070276;28;20195;-67
2022/08/11 10:18:40;;;;;;;4.45;1.80;;;;;;;;;;5051306;28;20343;-68
2022/08/11 10:20:33;;;;;;;5.03;2.28;;;;;;;;;;5050212;28;20268;-67
2022/08/11 10:28:29;;;;;;;4.20;1.90;;;;;;;;;;5063643;28;20259;-67
2022/08/11 10:33:59;;;;;;;2.55;2.20;;;;;;;;;;5058532;28;20184;-67
2022/08/11 10:36:27;;;;;;;3.00;1.90;;;;;;;;;;5055431;28;20612;-66
2022/08/11 10:38:53;;;;;;;2.97;1.70;;;;;;;;;;5051731;28;20649;-66
2022/08/11 10:44:06;;;;;;;3.25;1.60;;;;;;;;;;5061288;28;20200;-66
2022/08/11 10:49:17;;;;;;;6.95;2.20;;;;;;;;;;5070177;28;20200;-64
2022/08/11 10:59:58;;;;;;;4.28;1.88;;;;;;;;;;5049595;28;20204;-65
2022/08/11 11:02:26;;;;;;;2.15;1.60;;;;;;;;;;5069460;28;20177;-66
2022/08/11 11:04:51;;;;;;;3.97;1.80;;;;;;;;;;5070230;28;20212;-66
2022/08/11 11:07:23;;;;;;;4.47;1.80;;;;;;;;;;5069352;28;20636;-65
2022/08/11 11:10:00;;;;;;;7.30;1.83;;;;;;;;;;5067837;28;20184;-67
2022/08/11 11:18:15;;;;;;;4.38;1.67;;;;;;;;;;5054608;28;20278;-65
2022/08/11 11:21:03;;;;;;;2.20;1.50;;;;;;;;;;5057951;28;20612;-68
2022/08/11 11:23:55;;;;;;;15.18;2.60;;;;;;;;;;5058130;28;20177;-65
2022/08/11 11:26:34;;;;;;;5.35;1.88;;;;;;;;;;5064822;28;20221;-66
2022/08/11 11:29:28;;;;;;;3.80;1.83;;;;;;;;;;5061490;28;20172;-66
2022/08/11 11:32:05;;;;;;;6.25;1.48;;;;;;;;;;5056251;28;20205;-68
2022/08/11 11:34:57;;;;;;;2.90;1.65;;;;;;;;;;5063424;28;20636;-67
2022/08/11 11:37:23;;;;;;;2.20;1.55;;;;;;;;;;5053607;28;20641;-64
2022/08/11 11:39:49;;;;;;;2.55;1.55;;;;;;;;;;5053283;28;20610;-64
2022/08/11 11:42:16;;;;;;;3.85;2.15;;;;;;;;;;5051678;28;20181;-68
2022/08/11 11:44:44;;;;;;;2.65;1.83;;;;;;;;;;5063425;28;20223;-67
2022/08/11 11:47:12;;;;;;;5.07;1.77;;;;;;;;;;5052689;28;20176;-66
2022/08/11 11:49:41;;;;;;;5.88;1.92;;;;;;;;;;5055703;28;20188;-65
2022/08/11 11:52:08;;;;;;;2.28;1.70;;;;;;;;;;5048998;28;20184;-66
2022/08/11 11:54:35;;;;;;;2.55;1.60;;;;;;;;;;5049644;28;20180;-67
2022/08/11 12:02:36;;;;;;;2.17;1.50;;;;;;;;;;5050783;28;20200;-67
2022/08/11 12:05:03;;;;;;;2.58;1.40;;;;;;;;;;5064588;28;20288;-67
2022/08/11 12:10:17;;;;;;;5.32;1.92;;;;;;;;;;5064830;28;20211;-64
2022/08/11 12:15:27;;;;;;;6.13;1.60;;;;;;;;;;5048851;28;20247;-66
2022/08/11 12:17:55;;;;;;;2.53;1.58;;;;;;;;;;5061691;28;20600;-68
2022/08/11 12:20:21;;;;;;;5.95;1.83;;;;;;;;;;5049055;28;20208;-65
2022/08/11 12:28:18;;;;;;;5.38;1.77;;;;;;;;;;5048364;28;20282;-66
2022/08/11 12:30:46;;;;;;;2.30;1.70;;;;;;;;;;5060189;28;20188;-65
2022/08/11 12:33:12;;;;;;;1.92;1.70;;;;;;;;;;5053320;28;20191;-67
2022/08/11 12:35:39;;;;;;;3.28;1.50;;;;;;;;;;5068420;28;20237;-71
2022/08/11 12:38:05;;;;;;;3.13;1.48;;;;;;;;;;5052626;28;20215;-69
2022/08/11 12:46:06;;;;;;;3.33;1.70;;;;;;;;;;5068457;28;20742;-69
2022/08/11 12:54:30;;;;;;;2.33;1.92;;;;;;;;;;5037234;28;20200;-67
2022/08/11 13:05:16;;;;;;;4.60;1.63;;;;;;;;;;5048392;28;20258;-66
2022/08/11 13:07:44;;;;;;;4.30;2.17;;;;;;;;;;5061662;28;20183;-66
2022/08/11 13:10:12;;;;;;;1.88;1.67;;;;;;;;;;5068044;28;20660;-67
2022/08/11 13:12:48;;;;;;;1.70;1.58;;;;;;;;;;5050690;28;20596;-66
2022/08/11 13:15:21;;;;;;;2.22;1.70;;;;;;;;;;5062284;28;20633;-68
2022/08/11 13:17:48;;;;;;;2.20;1.80;;;;;;;;;;5059201;28;20204;-68
2022/08/11 13:20:20;;;;;;;1.90;1.80;;;;;;;;;;5051612;28;20180;-68
2022/08/11 13:22:54;;;;;;;2.45;2.00;;;;;;;;;;5055675;28;20203;-68
2022/08/11 13:25:25;;;;;;;2.55;1.75;;;;;;;;;;5050832;28;20209;-67
2022/08/11 13:27:55;;;;;;;3.45;1.60;;;;;;;;;;5051202;28;20231;-72
2022/08/11 13:33:10;;;;;;;4.35;1.80;;;;;;;;;;5064906;28;20258;-68
2022/08/11 13:35:36;;;;;;;2.90;1.40;;;;;;;;;;5052402;28;20265;-69
2022/08/11 13:38:04;;;;;;;2.25;1.58;;;;;;;;;;5064280;28;20260;-68
2022/08/11 13:40:31;;;;;;;3.78;1.60;;;;;;;;;;5052037;28;20261;-68
2022/08/11 13:42:58;;;;;;;3.20;1.90;;;;;;;;;;5050869;28;20181;-69
2022/08/11 13:45:25;;;;;;;1.88;1.70;;;;;;;;;;5051453;28;20209;-67
2022/08/11 13:47:58;;;;;;;1.88;1.58;;;;;;;;;;5055705;28;20647;-70
2022/08/11 13:53:11;;;;;;;2.67;1.70;;;;;;;;;;5059532;28;20191;-68
2022/08/11 13:55:38;;;;;;;2.92;1.55;;;;;;;;;;5057153;28;20173;-70
2022/08/11 13:58:04;;;;;;;1.60;1.40;;;;;;;;;;5071202;28;20268;-69
2022/08/11 14:00:30;;;;;;;2.72;1.40;;;;;;;;;;5056780;28;20692;-69
2022/08/11 14:02:56;;;;;;;3.38;1.92;;;;;;;;;;5059870;28;20216;-69
2022/08/11 14:05:26;;;;;;;1.92;1.70;;;;;;;;;;5058035;28;20274;-69
2022/08/11 14:07:57;;;;;;;3.72;1.52;;;;;;;;;;5070992;28;20199;-69
2022/08/11 14:10:27;;;;;;;2.28;1.63;;;;;;;;;;5069993;28;20230;-69
2022/08/11 14:15:44;;;;;;;2.35;1.65;;;;;;;;;;5059903;28;20586;-67
2022/08/11 14:18:24;;;;;;;4.55;1.80;;;;;;;;;;5055686;28;20183;-68
2022/08/11 14:23:56;;;;;;;1.60;1.50;;;;;;;;;;5040550;28;20196;-67
2022/08/11 14:26:22;;;;;;;3.60;1.90;;;;;;;;;;5046151;28;20231;-66
2022/08/11 14:28:49;;;;;;;2.95;1.58;;;;;;;;;;5051631;28;20264;-66
2022/08/11 14:31:15;;;;;;;3.13;1.85;;;;;;;;;;5067929;28;20620;-67
2022/08/11 14:33:42;;;;;;;2.20;2.00;;;;;;;;;;5066069;28;20204;-67
2022/08/11 14:36:10;;;;;;;2.60;1.80;;;;;;;;;;5069041;28;20180;-67
2022/08/11 14:38:36;;;;;;;1.70;1.60;;;;;;;;;;5060369;28;20550;-69
2022/08/11 14:49:17;;;;;;;2.35;1.50;;;;;;;;;;5059434;28;20188;-68
2022/08/11 14:51:43;;;;;;;2.03;1.73;;;;;;;;;;5062922;28;20663;-69
2022/08/11 14:56:55;;;;;;;3.92;1.80;;;;;;;;;;5062457;28;20251;-69
2022/08/11 14:59:21;;;;;;;2.45;1.45;;;;;;;;;;5059027;28;20189;-70
2022/08/11 15:04:30;;;;;;;4.47;1.75;;;;;;;;;;5069313;28;20212;-73
2022/08/11 15:06:56;;;;;;;1.30;1.30;;;;;;;;;;5063622;28;20716;-70
2022/08/11 15:09:22;;;;;;;2.05;1.70;;;;;;;;;;5068825;28;20245;-68
2022/08/11 15:17:35;;;;;;;1.70;1.55;;;;;;;;;;5048653;28;20253;-65
2022/08/11 15:25:37;;;;;;;2.55;1.80;;;;;;;;;;5065877;28;20219;-69
2022/08/11 15:37:26;;;;;;;2.15;1.83;;;;;;;;;;5062949;28;20729;-69
2022/08/11 15:39:25;;;;;;;4.35;1.73;;;;;;;;;;5044471;28;20183;-68
2022/08/11 15:47:47;;;;;;;4.00;2.13;;;;;;;;;;5069731;28;20554;-68
2022/08/11 15:50:16;;;;;;;2.95;1.90;;;;;;;;;;5064757;28;20271;-68
2022/08/11 15:52:48;;;;;;;4.38;2.22;;;;;;;;;;5050713;28;20180;-67
2022/08/11 15:55:15;;;;;;;2.53;2.33;;;;;;;;;;5050978;28;20235;-68
2022/08/11 16:04:10;;;;;;;2.10;1.90;;;;;;;;;;5062366;28;20702;-68
2022/08/11 16:06:12;;;;;;;3.08;2.78;;;;;;;;;;5061153;28;20215;-70
2022/08/11 16:08:39;;;;;;;2.83;1.92;;;;;;;;;;5054912;28;20230;-68
2022/08/11 16:11:06;;;;;;;3.22;2.30;;;;;;;;;;5056627;28;20464;-68
2022/08/11 16:16:14;;;;;;;4.13;1.90;;;;;;;;;;5058111;28;20197;-68
2022/08/11 16:18:52;;;;;;;1.75;1.65;;;;;;;;;;5063012;28;20172;-68
2022/08/11 16:21:22;;;;;;;2.95;2.00;;;;;;;;;;5059860;28;20615;-69
2022/08/11 16:23:50;;;;;;;3.70;2.15;;;;;;;;;;5049163;28;20565;-67
2022/08/11 16:26:21;;;;;;;2.42;1.80;;;;;;;;;;5047269;28;20318;-68
2022/08/11 16:28:50;;;;;;;3.70;2.10;;;;;;;;;;5058157;28;20180;-68
2022/08/11 16:31:16;;;;;;;2.88;2.60;;;;;;;;;;5067009;28;20283;-68
2022/08/11 16:33:42;;;;;;;4.28;2.60;;;;;;;;;;5063799;28;20783;-67
2022/08/11 16:38:55;;;;;;;3.80;2.53;;;;;;;;;;5067771;28;20226;-66
2022/08/11 16:46:59;;;;;;;3.05;2.03;;;;;;;;;;5046753;28;20245;-71
2022/08/11 16:49:32;;;;;;;2.78;2.05;;;;;;;;;;5048462;28;20273;-67
2022/08/11 16:52:02;;;;;;;3.15;2.17;;;;;;;;;;5051169;28;20749;-70
2022/08/11 16:54:28;;;;;;;3.97;2.40;;;;;;;;;;5059288;28;20685;-69
2022/08/11 16:56:54;;;;;;;2.65;2.15;;;;;;;;;;5057520;28;20688;-67
2022/08/11 16:59:30;;;;;;;6.53;2.35;;;;;;;;;;5062999;28;20187;-68
2022/08/11 17:02:06;;;;;;;2.50;1.90;;;;;;;;;;5054662;28;20185;-70
2022/08/11 17:13:08;;;;;;;4.25;1.80;;;;;;;;;;5065634;28;20203;-68
2022/08/11 17:18:39;;;;;;;2.95;1.85;;;;;;;;;;5061912;28;20624;-68
2022/08/11 17:21:07;;;;;;;2.42;1.90;;;;;;;;;;5062905;28;20184;-67
2022/08/11 17:23:48;;;;;;;3.22;1.83;;;;;;;;;;5059630;28;20180;-68
2022/08/11 17:26:20;;;;;;;2.33;1.90;;;;;;;;;;5055999;28;20207;-69
2022/08/11 17:28:50;;;;;;;1.77;1.63;;;;;;;;;;5061231;28;20188;-67
2022/08/11 17:36:51;;;;;;;2.85;1.90;;;;;;;;;;5052431;28;20690;-67
2022/08/11 17:39:18;;;;;;;2.30;2.10;;;;;;;;;;5060035;28;20173;-68
2022/08/11 17:50:02;;;;;;;2.28;1.83;;;;;;;;;;5049175;28;20194;-67
2022/08/11 18:01:02;;;;;;;4.22;1.90;;;;;;;;;;5048380;28;20204;-67
2022/08/11 18:03:28;;;;;;;2.15;1.95;;;;;;;;;;5064208;28;20203;-67
2022/08/11 18:05:55;;;;;;;4.25;1.70;;;;;;;;;;5063350;28;20193;-67
